createdAt,value
2023-04-27T00:02:14.102Z,101680.53
2023-04-27T00:04:41.699Z,101686.22
2023-04-27T00:07:09.332Z,101684.78
2023-04-27T00:09:36.239Z,101676.03
2023-04-27T00:12:03.175Z,101676.53
2023-04-27T00:14:30.040Z,101680.97
2023-04-27T00:16:56.945Z,101686.53
2023-04-27T00:19:26.242Z,101691.50
2023-04-27T00:21:53.142Z,101692.03
2023-04-27T00:24:19.952Z,101693.56
2023-04-27T00:26:46.793Z,101688.22
2023-04-27T00:29:13.921Z,101688.91
2023-04-27T00:31:41.089Z,101690.25
2023-04-27T00:34:07.957Z,101679.19
2023-04-27T00:36:36.218Z,101669.19
2023-04-27T00:39:04.367Z,101673.03
2023-04-27T00:41:31.815Z,101676.75
2023-04-27T00:43:58.804Z,101673.72
2023-04-27T00:46:26.456Z,101676.31
2023-04-27T00:48:53.617Z,101668.59
2023-04-27T00:51:20.860Z,101661.16
2023-04-27T00:53:51.143Z,101666.16
2023-04-27T00:56:17.969Z,101667.22
2023-04-27T00:58:44.838Z,101673.22
2023-04-27T01:01:12.856Z,101663.13
2023-04-27T01:03:40.106Z,101660.22
2023-04-27T01:06:07.773Z,101650.00
2023-04-27T01:08:34.696Z,101650.81
2023-04-27T01:11:03.287Z,101652.25
2023-04-27T01:13:30.146Z,101653.28
2023-04-27T01:15:56.999Z,101639.72
2023-04-27T01:18:24.439Z,101642.69
2023-04-27T01:20:51.252Z,101637.63
2023-04-27T01:23:19.544Z,101632.16
2023-04-27T01:25:46.356Z,101635.69
2023-04-27T01:28:13.348Z,101631.03
2023-04-27T01:30:40.153Z,101623.81
2023-04-27T01:33:07.140Z,101617.72
2023-04-27T01:35:34.043Z,101616.78
2023-04-27T01:38:01.451Z,101618.84
2023-04-27T01:40:29.743Z,101622.38
2023-04-27T01:42:56.755Z,101622.88
2023-04-27T01:45:23.615Z,101630.81
2023-04-27T01:47:51.809Z,101624.00
2023-04-27T01:50:18.904Z,101618.00
2023-04-27T01:52:46.679Z,101610.13
2023-04-27T01:55:13.692Z,101611.47
2023-04-27T01:57:42.002Z,101613.50
2023-04-27T02:00:09.835Z,101618.66
2023-04-27T02:02:36.975Z,101627.22
2023-04-27T02:05:04.465Z,101624.03
2023-04-27T02:07:31.339Z,101622.59
2023-04-27T02:09:58.219Z,101617.25
2023-04-27T02:12:25.164Z,101608.31
2023-04-27T02:14:53.459Z,101607.56
2023-04-27T02:17:20.426Z,101614.06
2023-04-27T02:19:47.274Z,101620.25
2023-04-27T02:22:14.173Z,101626.09
2023-04-27T02:24:41.245Z,101617.72
2023-04-27T02:27:08.148Z,101627.72
2023-04-27T02:29:39.047Z,101623.22
2023-04-27T02:32:07.961Z,101625.59
2023-04-27T02:34:34.850Z,101626.22
2023-04-27T02:37:01.703Z,101621.88
2023-04-27T02:39:28.573Z,101623.56
2023-04-27T02:41:55.384Z,101624.44
2023-04-27T02:44:22.314Z,101612.22
2023-04-27T02:46:50.236Z,101617.16
2023-04-27T02:49:18.582Z,101618.34
2023-04-27T02:51:45.530Z,101625.03
2023-04-27T02:54:12.445Z,101623.00
2023-04-27T02:56:39.244Z,101621.72
2023-04-27T02:59:06.108Z,101632.41
2023-04-27T03:01:32.987Z,101625.81
2023-04-27T03:03:59.983Z,101630.81
2023-04-27T03:06:29.055Z,101626.53
2023-04-27T03:08:55.900Z,101627.25
2023-04-27T03:11:22.754Z,101621.69
2023-04-27T03:13:49.608Z,101615.66
2023-04-27T03:16:16.488Z,101630.38
2023-04-27T03:18:43.331Z,101629.94
2023-04-27T03:21:11.405Z,101625.47
2023-04-27T03:23:40.404Z,101621.13
2023-04-27T03:26:07.812Z,101616.16
2023-04-27T03:28:35.160Z,101627.13
2023-04-27T03:31:05.236Z,101627.38
2023-04-27T03:33:32.117Z,101627.97
2023-04-27T03:35:59.479Z,101628.97
2023-04-27T03:38:26.655Z,101628.88
2023-04-27T03:40:55.057Z,101626.66
2023-04-27T03:43:22.395Z,101636.41
2023-04-27T03:45:49.504Z,101636.16
2023-04-27T03:48:16.806Z,101644.72
2023-04-27T03:50:43.789Z,101639.38
2023-04-27T03:53:11.549Z,101638.13
2023-04-27T03:55:39.190Z,101626.41
2023-04-27T03:58:07.625Z,101635.59
2023-04-27T04:00:35.966Z,101629.47
2023-04-27T04:03:03.383Z,101627.44
2023-04-27T04:05:30.940Z,101628.34
2023-04-27T04:07:58.047Z,101622.03
2023-04-27T04:10:25.443Z,101637.97
2023-04-27T04:12:52.635Z,101630.53
2023-04-27T04:15:21.202Z,101641.22
2023-04-27T04:17:49.308Z,101650.16
2023-04-27T04:20:16.814Z,101648.78
2023-04-27T04:22:44.261Z,101642.69
2023-04-27T04:25:11.695Z,101642.31
2023-04-27T04:27:38.689Z,101639.38
2023-04-27T04:30:06.911Z,101645.09
2023-04-27T04:32:38.009Z,101652.53
2023-04-27T04:35:05.604Z,101652.03
2023-04-27T04:37:36.737Z,101654.88
2023-04-27T04:40:10.713Z,101648.44
2023-04-27T04:42:38.062Z,101658.25
2023-04-27T04:45:07.104Z,101670.53
2023-04-27T04:47:35.435Z,101668.94
2023-04-27T04:50:02.466Z,101673.22
2023-04-27T04:52:29.622Z,101680.81
2023-04-27T04:54:56.500Z,101676.16
2023-04-27T04:57:23.431Z,101672.09
2023-04-27T04:59:50.919Z,101680.34
2023-04-27T05:02:17.841Z,101670.22
2023-04-27T05:04:46.409Z,101670.84
2023-04-27T05:07:15.135Z,101674.50
2023-04-27T05:09:43.020Z,101674.41
2023-04-27T05:12:10.225Z,101681.25
2023-04-27T05:14:37.082Z,101678.38
2023-04-27T05:17:03.931Z,101668.41
2023-04-27T05:19:31.579Z,101669.38
2023-04-27T05:21:59.935Z,101668.25
2023-04-27T05:24:27.026Z,101667.81
2023-04-27T05:26:54.976Z,101667.03
2023-04-27T05:29:22.363Z,101660.22
2023-04-27T05:31:49.420Z,101666.69
2023-04-27T05:34:16.540Z,101660.78
2023-04-27T05:36:43.528Z,101668.59
2023-04-27T05:39:12.086Z,101667.25
2023-04-27T05:41:39.260Z,101678.19
2023-04-27T05:44:06.885Z,101682.50
2023-04-27T05:46:34.883Z,101684.38
2023-04-27T05:49:02.903Z,101681.47
2023-04-27T05:51:29.991Z,101686.50
2023-04-27T05:53:56.898Z,101680.91
2023-04-27T05:56:25.346Z,101685.63
2023-04-27T05:58:52.297Z,101683.88
2023-04-27T06:01:19.302Z,101682.03
2023-04-27T06:03:46.850Z,101674.84
2023-04-27T06:06:14.001Z,101676.34
2023-04-27T06:08:41.352Z,101669.56
2023-04-27T06:11:08.336Z,101670.78
2023-04-27T06:13:36.616Z,101666.34
2023-04-27T06:16:03.751Z,101665.94
2023-04-27T06:18:31.800Z,101669.91
2023-04-27T06:21:00.236Z,101666.69
2023-04-27T06:23:27.312Z,101675.44
2023-04-27T06:25:54.221Z,101667.91
2023-04-27T06:28:21.058Z,101670.72
2023-04-27T06:30:49.298Z,101674.94
2023-04-27T06:33:16.303Z,101667.72
2023-04-27T06:35:44.574Z,101667.25
2023-04-27T06:38:12.743Z,101669.31
2023-04-27T06:40:40.370Z,101669.06
2023-04-27T06:43:07.391Z,101679.38
2023-04-27T06:45:34.300Z,101658.09
2023-04-27T06:48:02.717Z,101666.44
2023-04-27T06:50:30.529Z,101669.16
2023-04-27T06:52:57.366Z,101659.13
2023-04-27T06:55:24.349Z,101661.59
2023-04-27T06:57:51.260Z,101662.50
2023-04-27T07:00:19.062Z,101666.91
2023-04-27T07:02:46.303Z,101674.53
2023-04-27T07:05:14.744Z,101675.69
2023-04-27T07:07:41.701Z,101668.53
2023-04-27T07:10:09.352Z,101681.13
2023-04-27T07:12:36.492Z,101677.53
2023-04-27T07:15:04.490Z,101674.16
2023-04-27T07:17:31.565Z,101667.38
2023-04-27T07:19:58.538Z,101665.88
2023-04-27T07:22:26.860Z,101667.81
2023-04-27T07:24:53.733Z,101665.75
2023-04-27T07:27:20.586Z,101671.75
2023-04-27T07:29:48.235Z,101657.34
2023-04-27T07:32:15.231Z,101670.59
2023-04-27T07:34:52.565Z,101663.44
2023-04-27T07:37:20.990Z,101659.56
2023-04-27T07:39:52.115Z,101660.47
2023-04-27T07:42:19.118Z,101664.22
2023-04-27T07:44:46.020Z,101659.66
2023-04-27T07:47:14.063Z,101658.34
2023-04-27T07:49:40.959Z,101660.63
2023-04-27T07:52:08.562Z,101655.78
2023-04-27T07:54:35.472Z,101660.69
2023-04-27T07:57:08.218Z,101659.69
2023-04-27T07:59:35.082Z,101639.94
2023-04-27T08:02:17.738Z,101645.38
2023-04-27T08:04:45.524Z,101649.94
2023-04-27T08:07:12.967Z,101657.06
2023-04-27T08:09:40.019Z,101648.81
2023-04-27T08:12:08.254Z,101663.28
2023-04-27T08:14:35.745Z,101662.97
2023-04-27T08:17:02.801Z,101651.09
2023-04-27T08:19:29.688Z,101651.66
2023-04-27T08:21:56.952Z,101656.63
2023-04-27T08:24:24.004Z,101640.09
2023-04-27T08:26:50.907Z,101640.41
2023-04-27T08:29:27.685Z,101643.13
2023-04-27T08:31:57.268Z,101649.03
2023-04-27T08:34:24.252Z,101650.69
2023-04-27T08:36:51.190Z,101652.19
2023-04-27T08:39:18.567Z,101648.38
2023-04-27T08:41:46.474Z,101666.56
2023-04-27T08:44:13.631Z,101657.97
2023-04-27T08:46:42.067Z,101666.94
2023-04-27T08:49:09.983Z,101662.50
2023-04-27T08:51:37.209Z,101662.16
2023-04-27T08:54:04.598Z,101664.13
2023-04-27T08:56:31.562Z,101648.50
2023-04-27T08:59:00.822Z,101661.38
2023-04-27T09:01:27.859Z,101659.63
2023-04-27T09:04:02.279Z,101648.91
2023-04-27T09:06:30.451Z,101648.84
2023-04-27T09:08:57.374Z,101651.78
2023-04-27T09:11:29.976Z,101650.13
2023-04-27T09:13:58.572Z,101659.72
2023-04-27T09:16:27.209Z,101660.22
2023-04-27T09:18:54.638Z,101653.19
2023-04-27T09:21:27.874Z,101651.09
2023-04-27T09:23:55.715Z,101654.59
2023-04-27T09:26:24.349Z,101651.50
2023-04-27T09:28:52.617Z,101652.44
2023-04-27T09:31:20.690Z,101654.09
2023-04-27T09:33:56.128Z,101654.09
2023-04-27T09:36:25.642Z,101654.44
2023-04-27T09:38:53.211Z,101664.72
2023-04-27T09:41:20.319Z,101653.34
2023-04-27T09:43:47.665Z,101654.63
2023-04-27T09:46:15.195Z,101648.13
2023-04-27T09:48:42.736Z,101653.44
2023-04-27T09:51:10.325Z,101639.44
2023-04-27T09:53:43.849Z,101644.59
2023-04-27T09:56:26.303Z,101644.16
2023-04-27T09:59:10.411Z,101649.22
2023-04-27T10:01:40.986Z,101636.03
2023-04-27T10:04:28.147Z,101631.09
2023-04-27T10:07:00.400Z,101636.78
2023-04-27T10:09:36.303Z,101625.94
2023-04-27T10:12:17.639Z,101619.59
2023-04-27T10:14:56.116Z,101615.34
2023-04-27T10:17:30.390Z,101611.81
2023-04-27T10:19:58.981Z,101621.78
2023-04-27T10:22:39.367Z,101602.53
2023-04-27T10:25:17.893Z,101611.91
2023-04-27T10:27:49.736Z,101611.72
2023-04-27T10:30:18.726Z,101616.41
2023-04-27T10:32:56.173Z,101612.72
2023-04-27T10:35:32.571Z,101599.78
2023-04-27T10:38:06.540Z,101586.78
2023-04-27T10:40:35.857Z,101587.81
2023-04-27T10:43:10.551Z,101591.94
2023-04-27T10:45:37.534Z,101574.31
2023-04-27T10:48:05.341Z,101576.47
2023-04-27T10:50:32.472Z,101580.38
2023-04-27T10:53:04.845Z,101573.03
2023-04-27T10:55:32.237Z,101579.34
2023-04-27T10:58:01.973Z,101581.50
2023-04-27T11:00:31.071Z,101572.56
2023-04-27T11:03:09.488Z,101577.19
2023-04-27T11:05:36.515Z,101568.41
2023-04-27T11:08:07.720Z,101573.72
2023-04-27T11:10:38.184Z,101572.06
2023-04-27T11:13:11.757Z,101561.13
2023-04-27T11:15:46.429Z,101563.00
2023-04-27T11:18:13.517Z,101567.63
2023-04-27T11:20:40.415Z,101562.16
2023-04-27T11:23:07.871Z,101560.94
2023-04-27T11:25:35.523Z,101563.31
2023-04-27T11:28:02.480Z,101545.34
2023-04-27T11:30:31.526Z,101552.59
2023-04-27T11:32:58.583Z,101547.75
2023-04-27T11:35:34.859Z,101539.03
2023-04-27T11:38:01.706Z,101544.53
2023-04-27T11:40:29.057Z,101534.13
2023-04-27T11:42:59.924Z,101524.00
2023-04-27T11:45:30.377Z,101531.75
2023-04-27T11:48:03.914Z,101532.97
2023-04-27T11:50:31.300Z,101530.25
2023-04-27T11:53:01.177Z,101528.91
2023-04-27T11:55:28.749Z,101530.94
2023-04-27T11:57:58.065Z,101523.22
2023-04-27T12:00:25.539Z,101524.03
2023-04-27T12:02:52.890Z,101522.38
2023-04-27T12:05:21.960Z,101538.09
2023-04-27T12:07:48.886Z,101512.72
2023-04-27T12:10:16.218Z,101514.88
2023-04-27T12:12:43.145Z,101508.81
2023-04-27T12:15:11.150Z,101508.56
2023-04-27T12:17:39.631Z,101496.50
2023-04-27T12:20:07.564Z,101500.94
2023-04-27T12:22:35.904Z,101507.03
2023-04-27T12:25:02.944Z,101492.97
2023-04-27T12:27:29.909Z,101498.16
2023-04-27T12:29:59.485Z,101482.06
2023-04-27T12:32:27.817Z,101493.25
2023-04-27T12:34:54.623Z,101501.28
2023-04-27T12:37:22.183Z,101493.09
2023-04-27T12:39:50.474Z,101484.00
2023-04-27T12:42:19.874Z,101491.59
2023-04-27T12:44:47.486Z,101494.44
2023-04-27T12:47:27.824Z,101483.19
2023-04-27T12:50:01.274Z,101475.22
2023-04-27T12:52:28.859Z,101479.47
2023-04-27T12:54:59.368Z,101476.56
2023-04-27T12:57:26.723Z,101474.28
2023-04-27T12:59:53.607Z,101466.78
2023-04-27T13:02:20.772Z,101471.66
2023-04-27T13:04:47.888Z,101468.16
2023-04-27T13:07:14.955Z,101481.56
2023-04-27T13:09:42.171Z,101480.47
2023-04-27T13:12:10.582Z,101481.25
2023-04-27T13:14:37.471Z,101477.56
2023-04-27T13:17:04.340Z,101484.28
2023-04-27T13:19:31.825Z,101468.59
2023-04-27T13:21:58.662Z,101478.66
2023-04-27T13:24:25.950Z,101477.22
2023-04-27T13:26:52.854Z,101476.88
2023-04-27T13:29:21.129Z,101472.59
2023-04-27T13:31:48.259Z,101474.28
2023-04-27T13:34:15.378Z,101467.16
2023-04-27T13:36:42.519Z,101463.66
2023-04-27T13:39:09.335Z,101451.28
2023-04-27T13:41:36.218Z,101439.72
2023-04-27T13:44:03.078Z,101444.28
2023-04-27T13:46:31.446Z,101438.75
2023-04-27T13:48:58.376Z,101428.19
2023-04-27T13:51:26.694Z,101435.81
2023-04-27T13:53:53.623Z,101431.91
2023-04-27T13:56:20.982Z,101429.22
2023-04-27T13:58:47.842Z,101422.34
2023-04-27T14:01:14.701Z,101410.47
2023-04-27T14:03:43.888Z,101415.34
2023-04-27T14:06:11.059Z,101418.41
2023-04-27T14:08:37.987Z,101419.34
2023-04-27T14:11:06.043Z,101407.84
2023-04-27T14:13:32.911Z,101406.88
2023-04-27T14:15:59.905Z,101406.63
2023-04-27T14:18:32.159Z,101406.84
2023-04-27T14:21:01.107Z,101395.06
2023-04-27T14:23:28.137Z,101389.19
2023-04-27T14:25:54.982Z,101389.19
2023-04-27T14:28:21.915Z,101384.00
2023-04-27T14:30:48.768Z,101383.50
2023-04-27T14:33:15.743Z,101386.06
2023-04-27T14:35:42.701Z,101379.59
2023-04-27T14:38:11.481Z,101388.22
2023-04-27T14:40:38.341Z,101387.34
2023-04-27T14:43:05.261Z,101383.69
2023-04-27T14:45:43.609Z,101373.59
2023-04-27T14:48:17.557Z,101371.44
2023-04-27T14:50:44.460Z,101357.50
2023-04-27T14:53:12.760Z,101353.31
2023-04-27T14:55:41.151Z,101352.94
2023-04-27T14:58:08.167Z,101354.41
2023-04-27T15:00:35.058Z,101355.91
2023-04-27T15:03:02.089Z,101341.75
2023-04-27T15:05:29.126Z,101339.59
2023-04-27T15:07:56.260Z,101337.63
2023-04-27T15:10:24.589Z,101339.94
2023-04-27T15:12:51.436Z,101339.88
2023-04-27T15:15:18.566Z,101344.56
2023-04-27T15:17:45.553Z,101345.78
2023-04-27T15:20:14.194Z,101344.56
2023-04-27T15:22:41.276Z,101342.06
2023-04-27T15:25:09.064Z,101333.47
2023-04-27T15:27:37.520Z,101327.38
2023-04-27T15:30:05.459Z,101325.38
2023-04-27T15:32:32.527Z,101314.78
2023-04-27T15:34:59.790Z,101317.34
2023-04-27T15:37:30.240Z,101301.78
2023-04-27T15:39:57.511Z,101304.13
2023-04-27T15:42:24.548Z,101313.66
2023-04-27T15:44:52.886Z,101308.16
2023-04-27T15:47:19.758Z,101294.66
2023-04-27T15:49:56.625Z,101283.19
2023-04-27T15:52:24.522Z,101282.72
2023-04-27T15:54:51.418Z,101283.22
2023-04-27T15:57:18.761Z,101292.72
2023-04-27T15:59:45.987Z,101289.50
2023-04-27T16:02:14.286Z,101285.53
2023-04-27T16:04:41.250Z,101282.66
2023-04-27T16:07:08.233Z,101269.38
2023-04-27T16:09:35.416Z,101260.78
2023-04-27T16:12:04.081Z,101263.25
2023-04-27T16:14:31.049Z,101261.03
2023-04-27T16:17:02.677Z,101244.81
2023-04-27T16:19:31.177Z,101233.28
2023-04-27T16:21:58.054Z,101217.88
2023-04-27T16:24:25.517Z,101230.47
2023-04-27T16:26:52.425Z,101225.91
2023-04-27T16:29:19.297Z,101236.69
2023-04-27T16:31:49.743Z,101227.72
2023-04-27T16:34:16.744Z,101233.78
2023-04-27T16:36:46.731Z,101226.50
2023-04-27T16:39:14.285Z,101209.34
2023-04-27T16:41:42.337Z,101203.25
2023-04-27T16:44:09.253Z,101195.44
2023-04-27T16:46:36.503Z,101204.25
2023-04-27T16:49:04.181Z,101221.34
2023-04-27T16:51:31.472Z,101214.22
2023-04-27T16:53:59.960Z,101218.00
2023-04-27T16:56:27.450Z,101222.47
2023-04-27T16:58:54.440Z,101224.78
2023-04-27T17:01:22.320Z,101221.91
2023-04-27T17:03:49.340Z,101222.75
2023-04-27T17:06:16.599Z,101213.28
2023-04-27T17:08:43.496Z,101205.72
2023-04-27T17:11:12.206Z,101211.97
2023-04-27T17:13:39.076Z,101211.97
2023-04-27T17:16:06.872Z,101211.53
2023-04-27T17:18:34.087Z,101210.34
2023-04-27T17:21:01.016Z,101210.84
2023-04-27T17:23:27.863Z,101223.13
2023-04-27T17:25:54.738Z,101229.25
2023-04-27T17:28:23.024Z,101230.59
2023-04-27T17:30:49.861Z,101229.84
2023-04-27T17:33:17.026Z,101220.75
2023-04-27T17:35:44.503Z,101222.69
2023-04-27T17:38:11.949Z,101228.88
2023-04-27T17:40:38.858Z,101235.53
2023-04-27T17:43:05.707Z,101234.47
2023-04-27T17:45:34.040Z,101223.28
2023-04-27T17:48:01.171Z,101221.91
2023-04-27T17:50:28.832Z,101217.00
2023-04-27T17:52:55.741Z,101227.00
2023-04-27T17:55:23.336Z,101219.41
2023-04-27T17:57:50.522Z,101219.09
2023-04-27T18:00:18.307Z,101218.91
2023-04-27T18:02:48.563Z,101219.84
2023-04-27T18:05:15.674Z,101216.41
2023-04-27T18:07:42.697Z,101206.06
2023-04-27T18:10:09.898Z,101192.50
2023-04-27T18:12:36.917Z,101202.59
2023-04-27T18:15:06.257Z,101188.66
2023-04-27T18:17:34.717Z,101189.25
2023-04-27T18:20:09.364Z,101183.97
2023-04-27T18:22:38.582Z,101173.81
2023-04-27T18:25:06.418Z,101169.63
2023-04-27T18:27:33.273Z,101169.28
2023-04-27T18:30:00.156Z,101166.13
2023-04-27T18:32:27.067Z,101164.63
2023-04-27T18:34:54.051Z,101156.75
2023-04-27T18:37:22.475Z,101154.59
2023-04-27T18:39:51.433Z,101153.72
2023-04-27T18:42:20.212Z,101149.38
2023-04-27T18:44:47.402Z,101147.72
2023-04-27T18:47:16.278Z,101142.31
2023-04-27T18:49:43.373Z,101143.66
2023-04-27T18:52:11.592Z,101138.69
2023-04-27T18:54:39.954Z,101144.56
2023-04-27T18:57:06.931Z,101137.66
2023-04-27T18:59:33.887Z,101134.72
2023-04-27T19:02:01.002Z,101132.56
2023-04-27T19:04:28.247Z,101137.59
2023-04-27T19:06:55.458Z,101140.63
2023-04-27T19:09:22.319Z,101141.97
2023-04-27T19:11:59.966Z,101143.47
2023-04-27T19:14:30.851Z,101145.16
2023-04-27T19:16:57.931Z,101151.22
2023-04-27T19:19:25.894Z,101148.81
2023-04-27T19:21:52.938Z,101143.06
2023-04-27T19:24:20.024Z,101136.69
2023-04-27T19:26:48.422Z,101144.19
2023-04-27T19:29:17.220Z,101134.91
2023-04-27T19:31:44.629Z,101139.75
2023-04-27T19:34:11.666Z,101141.84
2023-04-27T19:36:38.576Z,101147.72
2023-04-27T19:39:05.398Z,101149.13
2023-04-27T19:41:32.382Z,101135.66
2023-04-27T19:43:59.339Z,101148.91
2023-04-27T19:46:27.619Z,101141.28
2023-04-27T19:48:54.512Z,101143.47
2023-04-27T19:51:21.492Z,101143.91
2023-04-27T19:53:48.435Z,101134.22
2023-04-27T19:56:15.260Z,101135.75
2023-04-27T19:58:42.277Z,101137.47
2023-04-27T20:01:10.342Z,101121.38
2023-04-27T20:03:40.182Z,101114.13
2023-04-27T20:06:07.284Z,101111.09
2023-04-27T20:08:34.251Z,101096.41
2023-04-27T20:11:01.199Z,101088.94
2023-04-27T20:13:28.024Z,101089.63
2023-04-27T20:15:55.069Z,101078.94
2023-04-27T20:18:21.925Z,101080.59
2023-04-27T20:20:50.259Z,101077.84
2023-04-27T20:23:17.168Z,101083.91
2023-04-27T20:25:44.170Z,101088.91
2023-04-27T20:28:11.085Z,101088.81
2023-04-27T20:30:38.074Z,101083.66
2023-04-27T20:33:05.041Z,101071.94
2023-04-27T20:35:31.950Z,101070.00
2023-04-27T20:38:00.473Z,101074.50
2023-04-27T20:40:27.485Z,101075.53
2023-04-27T20:42:54.470Z,101074.81
2023-04-27T20:45:21.717Z,101066.69
2023-04-27T20:47:48.986Z,101061.31
2023-04-27T20:50:16.074Z,101050.69
2023-04-27T20:52:43.082Z,101060.69
2023-04-27T20:55:11.310Z,101049.53
2023-04-27T20:57:38.142Z,101055.03
2023-04-27T21:00:06.243Z,101051.91
2023-04-27T21:02:33.112Z,101041.38
2023-04-27T21:05:00.239Z,101032.88
2023-04-27T21:07:27.129Z,101021.31
2023-04-27T21:09:53.968Z,101026.16
2023-04-27T21:12:22.907Z,101020.16
2023-04-27T21:14:49.856Z,101018.63
2023-04-27T21:17:16.711Z,101029.09
2023-04-27T21:19:43.571Z,101037.47
2023-04-27T21:22:10.475Z,101032.78
2023-04-27T21:24:37.325Z,101017.00
2023-04-27T21:27:04.206Z,101014.94
2023-04-27T21:29:34.755Z,101018.78
2023-04-27T21:32:01.778Z,101016.81
2023-04-27T21:34:29.144Z,101018.09
2023-04-27T21:36:56.024Z,101009.94
2023-04-27T21:39:22.916Z,101000.91
2023-04-27T21:41:49.744Z,100997.69
2023-04-27T21:44:16.924Z,100995.53
2023-04-27T21:46:45.645Z,100998.13
2023-04-27T21:49:12.510Z,100991.78
2023-04-27T21:51:39.465Z,100998.41
2023-04-27T21:54:06.334Z,100995.25
2023-04-27T21:56:33.274Z,101003.31
2023-04-27T21:59:00.390Z,101007.38
2023-04-27T22:01:27.455Z,101002.31
2023-04-27T22:03:56.358Z,101014.44
2023-04-27T22:06:23.453Z,101006.66
2023-04-27T22:08:50.325Z,101017.22
2023-04-27T22:11:17.253Z,101022.16
2023-04-27T22:13:44.280Z,101014.66
2023-04-27T22:16:13.145Z,101012.75
2023-04-27T22:18:40.668Z,101019.19
2023-04-27T22:21:10.125Z,101010.78
2023-04-27T22:23:36.968Z,100984.03
2023-04-27T22:26:04.100Z,100979.69
2023-04-27T22:28:30.958Z,100972.91
2023-04-27T22:30:58.099Z,100969.81
2023-04-27T22:33:24.881Z,100964.56
2023-04-27T22:35:51.784Z,100957.56
2023-04-27T22:38:20.074Z,100952.28
2023-04-27T22:40:46.884Z,100947.22
2023-04-27T22:43:13.736Z,100951.25
2023-04-27T22:45:40.550Z,100935.06
2023-04-27T22:48:07.969Z,100914.44
2023-04-27T22:50:35.236Z,100929.38
2023-04-27T22:53:02.137Z,100931.13
2023-04-27T22:55:30.507Z,100926.16
2023-04-27T22:57:57.333Z,100915.13
2023-04-27T23:00:24.258Z,100898.84
2023-04-27T23:02:51.294Z,100880.25
2023-04-27T23:05:18.207Z,100854.50
2023-04-27T23:07:46.321Z,100787.66
2023-04-27T23:10:15.231Z,100760.94
2023-04-27T23:12:43.677Z,100794.94
2023-04-27T23:15:11.425Z,100814.50
2023-04-27T23:17:38.457Z,100847.84
2023-04-27T23:20:11.164Z,100863.31
2023-04-27T23:22:44.064Z,100872.91
2023-04-27T23:25:11.396Z,100889.19
2023-04-27T23:27:38.198Z,100889.13
2023-04-27T23:30:08.286Z,100865.53
2023-04-27T23:32:36.724Z,100864.59
2023-04-27T23:35:03.938Z,100850.88
2023-04-27T23:37:30.781Z,100831.19
2023-04-27T23:39:57.796Z,100823.63
2023-04-27T23:42:24.711Z,100823.50
2023-04-27T23:44:53.128Z,100823.28
2023-04-27T23:47:21.406Z,100820.28
2023-04-27T23:49:48.192Z,100833.34
2023-04-27T23:52:14.994Z,100841.88
2023-04-27T23:54:41.839Z,100841.19
2023-04-27T23:57:08.739Z,100833.50
2023-04-27T23:59:36.051Z,100835.97
